sensor_id;sensor_type;location;lat;lon;timestamp;temperature;humidity
22698;DHT22;11516;51.612;7.510;2023-05-17T00:00:03;9.40;99.90
22698;DHT22;11516;51.612;7.510;2023-05-17T00:02:31;9.30;99.90
22698;DHT22;11516;51.612;7.510;2023-05-17T00:04:56;9.20;99.90
22698;DHT22;11516;51.612;7.510;2023-05-17T00:07:22;9.20;99.90
22698;DHT22;11516;51.612;7.510;2023-05-17T00:09:47;9.10;99.90
22698;DHT22;11516;51.612;7.510;2023-05-17T00:12:13;9.10;99.90
22698;DHT22;11516;51.612;7.510;2023-05-17T00:14:38;9.00;99.90
22698;DHT22;11516;51.612;7.510;2023-05-17T00:17:04;9.00;99.90
22698;DHT22;11516;51.612;7.510;2023-05-17T00:19:30;9.00;99.90
22698;DHT22;11516;51.612;7.510;2023-05-17T00:21:55;9.00;99.90
22698;DHT22;11516;51.612;7.510;2023-05-17T00:24:21;8.90;99.90
22698;DHT22;11516;51.612;7.510;2023-05-17T00:26:46;8.90;99.90
22698;DHT22;11516;51.612;7.510;2023-05-17T00:29:12;8.80;99.90
22698;DHT22;11516;51.612;7.510;2023-05-17T00:31:37;8.80;99.90
22698;DHT22;11516;51.612;7.510;2023-05-17T00:34:03;8.80;99.90
22698;DHT22;11516;51.612;7.510;2023-05-17T00:36:28;8.70;99.90
22698;DHT22;11516;51.612;7.510;2023-05-17T00:38:54;8.70;99.90
22698;DHT22;11516;51.612;7.510;2023-05-17T00:41:19;8.70;99.90
22698;DHT22;11516;51.612;7.510;2023-05-17T00:43:45;8.70;99.90
22698;DHT22;11516;51.612;7.510;2023-05-17T00:46:10;8.70;99.90
22698;DHT22;11516;51.612;7.510;2023-05-17T00:48:36;8.70;99.90
22698;DHT22;11516;51.612;7.510;2023-05-17T00:51:02;8.70;99.90
22698;DHT22;11516;51.612;7.510;2023-05-17T00:53:28;8.70;99.90
22698;DHT22;11516;51.612;7.510;2023-05-17T00:55:54;8.60;99.90
22698;DHT22;11516;51.612;7.510;2023-05-17T00:58:21;8.60;99.90
22698;DHT22;11516;51.612;7.510;2023-05-17T01:00:47;8.70;99.90
22698;DHT22;11516;51.612;7.510;2023-05-17T01:03:18;8.70;99.90
22698;DHT22;11516;51.612;7.510;2023-05-17T01:05:47;8.70;99.90
22698;DHT22;11516;51.612;7.510;2023-05-17T01:08:12;8.60;99.90
22698;DHT22;11516;51.612;7.510;2023-05-17T01:14:01;8.60;99.90
22698;DHT22;11516;51.612;7.510;2023-05-17T01:16:35;8.60;99.90
22698;DHT22;11516;51.612;7.510;2023-05-17T01:24:27;8.50;99.90
22698;DHT22;11516;51.612;7.510;2023-05-17T01:26:55;8.50;99.90
22698;DHT22;11516;51.612;7.510;2023-05-17T01:29:23;8.50;99.90
22698;DHT22;11516;51.612;7.510;2023-05-17T01:31:51;8.50;99.90
22698;DHT22;11516;51.612;7.510;2023-05-17T01:34:27;8.60;99.90
22698;DHT22;11516;51.612;7.510;2023-05-17T01:36:53;8.60;99.90
22698;DHT22;11516;51.612;7.510;2023-05-17T01:39:19;8.50;99.90
22698;DHT22;11516;51.612;7.510;2023-05-17T01:41:54;8.60;99.90
22698;DHT22;11516;51.612;7.510;2023-05-17T01:47:10;8.60;99.90
22698;DHT22;11516;51.612;7.510;2023-05-17T01:49:37;8.60;99.90
22698;DHT22;11516;51.612;7.510;2023-05-17T01:52:10;8.60;99.90
22698;DHT22;11516;51.612;7.510;2023-05-17T01:54:42;8.60;99.90
22698;DHT22;11516;51.612;7.510;2023-05-17T01:57:09;8.60;99.90
22698;DHT22;11516;51.612;7.510;2023-05-17T01:59:37;8.50;99.90
22698;DHT22;11516;51.612;7.510;2023-05-17T02:02:03;8.50;99.90
22698;DHT22;11516;51.612;7.510;2023-05-17T02:04:34;8.60;99.90
22698;DHT22;11516;51.612;7.510;2023-05-17T02:07:00;8.50;99.90
22698;DHT22;11516;51.612;7.510;2023-05-17T02:09:26;8.50;99.90
22698;DHT22;11516;51.612;7.510;2023-05-17T02:11:51;8.50;99.90
22698;DHT22;11516;51.612;7.510;2023-05-17T02:14:17;8.50;99.90
22698;DHT22;11516;51.612;7.510;2023-05-17T02:16:42;8.50;99.90
22698;DHT22;11516;51.612;7.510;2023-05-17T02:19:08;8.50;99.90
22698;DHT22;11516;51.612;7.510;2023-05-17T02:21:34;8.50;99.90
22698;DHT22;11516;51.612;7.510;2023-05-17T02:23:59;8.50;99.90
22698;DHT22;11516;51.612;7.510;2023-05-17T02:26:25;8.50;99.90
22698;DHT22;11516;51.612;7.510;2023-05-17T02:28:52;8.50;99.90
22698;DHT22;11516;51.612;7.510;2023-05-17T02:31:18;8.50;99.90
22698;DHT22;11516;51.612;7.510;2023-05-17T02:33:43;8.60;99.90
22698;DHT22;11516;51.612;7.510;2023-05-17T02:36:09;8.50;99.90
22698;DHT22;11516;51.612;7.510;2023-05-17T02:38:34;8.50;99.90
22698;DHT22;11516;51.612;7.510;2023-05-17T02:41:00;8.40;99.90
22698;DHT22;11516;51.612;7.510;2023-05-17T02:43:25;8.50;99.90
22698;DHT22;11516;51.612;7.510;2023-05-17T02:45:51;8.50;99.90
22698;DHT22;11516;51.612;7.510;2023-05-17T02:48:16;8.40;99.90
22698;DHT22;11516;51.612;7.510;2023-05-17T02:50:42;8.40;99.90
22698;DHT22;11516;51.612;7.510;2023-05-17T02:53:08;8.40;99.90
22698;DHT22;11516;51.612;7.510;2023-05-17T02:55:33;8.40;99.90
22698;DHT22;11516;51.612;7.510;2023-05-17T02:57:59;8.40;99.90
22698;DHT22;11516;51.612;7.510;2023-05-17T03:00:24;8.50;99.90
22698;DHT22;11516;51.612;7.510;2023-05-17T03:02:50;8.40;99.90
22698;DHT22;11516;51.612;7.510;2023-05-17T03:05:16;8.50;99.90
22698;DHT22;11516;51.612;7.510;2023-05-17T03:07:41;8.50;99.90
22698;DHT22;11516;51.612;7.510;2023-05-17T03:10:07;8.40;99.90
22698;DHT22;11516;51.612;7.510;2023-05-17T03:12:33;8.50;99.90
22698;DHT22;11516;51.612;7.510;2023-05-17T03:14:58;8.50;99.90
22698;DHT22;11516;51.612;7.510;2023-05-17T03:17:24;8.60;99.90
22698;DHT22;11516;51.612;7.510;2023-05-17T03:19:49;8.60;99.90
22698;DHT22;11516;51.612;7.510;2023-05-17T03:22:15;8.60;99.90
22698;DHT22;11516;51.612;7.510;2023-05-17T03:24:40;8.60;99.90
22698;DHT22;11516;51.612;7.510;2023-05-17T03:27:06;8.60;99.90
22698;DHT22;11516;51.612;7.510;2023-05-17T03:29:31;8.60;99.90
22698;DHT22;11516;51.612;7.510;2023-05-17T03:31:57;8.60;99.90
22698;DHT22;11516;51.612;7.510;2023-05-17T03:34:22;8.60;99.90
22698;DHT22;11516;51.612;7.510;2023-05-17T03:36:48;8.70;99.90
22698;DHT22;11516;51.612;7.510;2023-05-17T03:39:13;8.70;99.90
22698;DHT22;11516;51.612;7.510;2023-05-17T03:41:39;8.70;99.90
22698;DHT22;11516;51.612;7.510;2023-05-17T03:44:06;8.70;99.90
22698;DHT22;11516;51.612;7.510;2023-05-17T03:46:31;8.60;99.90
22698;DHT22;11516;51.612;7.510;2023-05-17T03:48:57;8.60;99.90
22698;DHT22;11516;51.612;7.510;2023-05-17T03:51:22;8.60;99.90
22698;DHT22;11516;51.612;7.510;2023-05-17T03:53:59;8.60;99.90
22698;DHT22;11516;51.612;7.510;2023-05-17T03:56:24;8.60;99.90
22698;DHT22;11516;51.612;7.510;2023-05-17T03:58:50;8.70;99.90
22698;DHT22;11516;51.612;7.510;2023-05-17T04:01:16;8.70;99.90
22698;DHT22;11516;51.612;7.510;2023-05-17T04:03:41;8.80;99.90
22698;DHT22;11516;51.612;7.510;2023-05-17T04:06:07;8.80;99.90
22698;DHT22;11516;51.612;7.510;2023-05-17T04:08:34;8.90;99.90
22698;DHT22;11516;51.612;7.510;2023-05-17T04:11:00;8.90;99.90
22698;DHT22;11516;51.612;7.510;2023-05-17T04:13:34;8.80;99.90
22698;DHT22;11516;51.612;7.510;2023-05-17T04:16:00;8.80;99.90
22698;DHT22;11516;51.612;7.510;2023-05-17T04:18:26;8.80;99.90
22698;DHT22;11516;51.612;7.510;2023-05-17T04:20:52;8.90;99.90
22698;DHT22;11516;51.612;7.510;2023-05-17T04:23:18;8.90;99.90
22698;DHT22;11516;51.612;7.510;2023-05-17T04:25:44;8.90;99.90
22698;DHT22;11516;51.612;7.510;2023-05-17T04:28:11;8.90;99.90
22698;DHT22;11516;51.612;7.510;2023-05-17T04:30:41;8.90;99.90
22698;DHT22;11516;51.612;7.510;2023-05-17T04:33:07;8.90;99.90
22698;DHT22;11516;51.612;7.510;2023-05-17T04:35:32;8.90;99.90
22698;DHT22;11516;51.612;7.510;2023-05-17T04:37:58;8.90;99.90
22698;DHT22;11516;51.612;7.510;2023-05-17T04:40:23;8.80;99.90
22698;DHT22;11516;51.612;7.510;2023-05-17T04:42:49;8.80;99.90
22698;DHT22;11516;51.612;7.510;2023-05-17T04:45:15;8.70;99.90
22698;DHT22;11516;51.612;7.510;2023-05-17T04:47:41;8.60;99.90
22698;DHT22;11516;51.612;7.510;2023-05-17T04:50:08;8.60;99.90
22698;DHT22;11516;51.612;7.510;2023-05-17T04:52:33;8.60;99.90
22698;DHT22;11516;51.612;7.510;2023-05-17T04:54:59;8.60;99.90
22698;DHT22;11516;51.612;7.510;2023-05-17T04:57:24;8.70;99.90
22698;DHT22;11516;51.612;7.510;2023-05-17T04:59:50;8.70;99.90
22698;DHT22;11516;51.612;7.510;2023-05-17T05:02:15;8.80;99.90
22698;DHT22;11516;51.612;7.510;2023-05-17T05:04:41;8.70;99.90
22698;DHT22;11516;51.612;7.510;2023-05-17T05:07:06;8.90;99.90
22698;DHT22;11516;51.612;7.510;2023-05-17T05:09:32;8.80;99.90
22698;DHT22;11516;51.612;7.510;2023-05-17T05:11:57;8.80;99.90
22698;DHT22;11516;51.612;7.510;2023-05-17T05:14:23;8.80;99.90
22698;DHT22;11516;51.612;7.510;2023-05-17T05:16:48;8.90;99.90
22698;DHT22;11516;51.612;7.510;2023-05-17T05:19:14;8.90;99.90
22698;DHT22;11516;51.612;7.510;2023-05-17T05:21:39;9.00;99.90
22698;DHT22;11516;51.612;7.510;2023-05-17T05:24:05;9.10;99.90
22698;DHT22;11516;51.612;7.510;2023-05-17T05:26:31;9.20;99.90
22698;DHT22;11516;51.612;7.510;2023-05-17T05:28:57;9.30;99.90
22698;DHT22;11516;51.612;7.510;2023-05-17T05:31:22;9.30;99.90
22698;DHT22;11516;51.612;7.510;2023-05-17T05:33:48;9.40;99.90
22698;DHT22;11516;51.612;7.510;2023-05-17T05:36:14;9.40;99.90
22698;DHT22;11516;51.612;7.510;2023-05-17T05:38:39;9.50;99.90
22698;DHT22;11516;51.612;7.510;2023-05-17T05:41:05;9.60;99.90
22698;DHT22;11516;51.612;7.510;2023-05-17T05:43:30;9.50;99.90
22698;DHT22;11516;51.612;7.510;2023-05-17T05:45:56;9.60;99.90
22698;DHT22;11516;51.612;7.510;2023-05-17T05:48:21;9.60;99.90
22698;DHT22;11516;51.612;7.510;2023-05-17T05:50:47;9.60;99.90
22698;DHT22;11516;51.612;7.510;2023-05-17T05:53:12;9.60;99.90
22698;DHT22;11516;51.612;7.510;2023-05-17T05:55:41;9.60;99.90
22698;DHT22;11516;51.612;7.510;2023-05-17T05:58:07;9.70;99.90
22698;DHT22;11516;51.612;7.510;2023-05-17T06:00:33;9.70;99.90
22698;DHT22;11516;51.612;7.510;2023-05-17T06:02:58;9.70;99.90
22698;DHT22;11516;51.612;7.510;2023-05-17T06:05:24;9.80;99.90
22698;DHT22;11516;51.612;7.510;2023-05-17T06:07:49;9.90;99.90
22698;DHT22;11516;51.612;7.510;2023-05-17T06:10:15;10.00;99.90
22698;DHT22;11516;51.612;7.510;2023-05-17T06:12:40;10.40;99.90
22698;DHT22;11516;51.612;7.510;2023-05-17T06:15:06;10.30;99.90
22698;DHT22;11516;51.612;7.510;2023-05-17T06:17:32;10.30;99.90
22698;DHT22;11516;51.612;7.510;2023-05-17T06:19:58;10.40;99.90
22698;DHT22;11516;51.612;7.510;2023-05-17T06:22:23;10.40;99.90
22698;DHT22;11516;51.612;7.510;2023-05-17T06:24:49;10.40;99.90
22698;DHT22;11516;51.612;7.510;2023-05-17T06:27:14;10.40;99.90
22698;DHT22;11516;51.612;7.510;2023-05-17T06:29:40;10.60;99.90
22698;DHT22;11516;51.612;7.510;2023-05-17T06:32:06;10.60;99.90
22698;DHT22;11516;51.612;7.510;2023-05-17T06:34:31;10.70;99.90
22698;DHT22;11516;51.612;7.510;2023-05-17T06:36:57;10.60;99.90
22698;DHT22;11516;51.612;7.510;2023-05-17T06:39:23;10.60;99.90
22698;DHT22;11516;51.612;7.510;2023-05-17T06:41:48;10.60;99.90
22698;DHT22;11516;51.612;7.510;2023-05-17T06:44:14;10.60;99.90
22698;DHT22;11516;51.612;7.510;2023-05-17T06:46:39;10.60;99.90
22698;DHT22;11516;51.612;7.510;2023-05-17T06:49:05;10.70;99.90
22698;DHT22;11516;51.612;7.510;2023-05-17T06:51:30;10.70;99.90
22698;DHT22;11516;51.612;7.510;2023-05-17T06:53:56;10.80;99.90
22698;DHT22;11516;51.612;7.510;2023-05-17T06:56:21;11.00;99.90
22698;DHT22;11516;51.612;7.510;2023-05-17T06:58:47;11.00;99.90
22698;DHT22;11516;51.612;7.510;2023-05-17T07:01:12;11.00;99.90
22698;DHT22;11516;51.612;7.510;2023-05-17T07:03:38;11.10;99.90
22698;DHT22;11516;51.612;7.510;2023-05-17T07:06:04;11.40;99.90
22698;DHT22;11516;51.612;7.510;2023-05-17T07:08:29;11.30;99.90
22698;DHT22;11516;51.612;7.510;2023-05-17T07:10:55;11.40;99.90
22698;DHT22;11516;51.612;7.510;2023-05-17T07:13:20;11.40;99.90
22698;DHT22;11516;51.612;7.510;2023-05-17T07:15:46;11.40;99.90
22698;DHT22;11516;51.612;7.510;2023-05-17T07:18:11;11.50;99.90
22698;DHT22;11516;51.612;7.510;2023-05-17T07:20:37;11.70;99.90
22698;DHT22;11516;51.612;7.510;2023-05-17T07:23:02;11.90;99.90
22698;DHT22;11516;51.612;7.510;2023-05-17T07:25:28;12.00;99.90
22698;DHT22;11516;51.612;7.510;2023-05-17T07:27:54;11.80;99.90
22698;DHT22;11516;51.612;7.510;2023-05-17T07:30:19;11.80;99.90
22698;DHT22;11516;51.612;7.510;2023-05-17T07:32:45;11.80;99.90
22698;DHT22;11516;51.612;7.510;2023-05-17T07:35:10;11.50;99.90
22698;DHT22;11516;51.612;7.510;2023-05-17T07:37:36;11.50;99.90
22698;DHT22;11516;51.612;7.510;2023-05-17T07:40:02;11.30;99.90
22698;DHT22;11516;51.612;7.510;2023-05-17T07:42:29;11.40;99.90
22698;DHT22;11516;51.612;7.510;2023-05-17T07:44:54;11.40;99.90
22698;DHT22;11516;51.612;7.510;2023-05-17T07:47:20;11.50;99.90
22698;DHT22;11516;51.612;7.510;2023-05-17T07:49:45;11.60;99.90
22698;DHT22;11516;51.612;7.510;2023-05-17T07:52:11;11.40;99.90
22698;DHT22;11516;51.612;7.510;2023-05-17T07:54:37;11.50;99.90
22698;DHT22;11516;51.612;7.510;2023-05-17T07:57:03;11.70;99.90
22698;DHT22;11516;51.612;7.510;2023-05-17T07:59:29;12.00;99.90
22698;DHT22;11516;51.612;7.510;2023-05-17T10:12:50;13.30;99.90
22698;DHT22;11516;51.612;7.510;2023-05-17T10:15:17;13.30;99.90
22698;DHT22;11516;51.612;7.510;2023-05-17T10:17:43;13.30;99.90
22698;DHT22;11516;51.612;7.510;2023-05-17T10:20:10;13.20;99.90
22698;DHT22;11516;51.612;7.510;2023-05-17T10:22:37;13.40;99.90
22698;DHT22;11516;51.612;7.510;2023-05-17T10:28:25;13.80;99.90
22698;DHT22;11516;51.612;7.510;2023-05-17T10:30:52;13.40;99.90
22698;DHT22;11516;51.612;7.510;2023-05-17T10:33:19;13.20;99.90
22698;DHT22;11516;51.612;7.510;2023-05-17T10:35:46;13.40;99.90
22698;DHT22;11516;51.612;7.510;2023-05-17T10:38:13;13.90;99.90
22698;DHT22;11516;51.612;7.510;2023-05-17T10:40:40;13.50;99.90
22698;DHT22;11516;51.612;7.510;2023-05-17T10:43:08;13.60;99.90
22698;DHT22;11516;51.612;7.510;2023-05-17T10:45:35;13.40;99.90
22698;DHT22;11516;51.612;7.510;2023-05-17T10:48:04;13.80;99.90
22698;DHT22;11516;51.612;7.510;2023-05-17T10:50:30;13.70;99.90
22698;DHT22;11516;51.612;7.510;2023-05-17T10:52:58;13.70;99.90
22698;DHT22;11516;51.612;7.510;2023-05-17T10:55:36;13.50;99.90
22698;DHT22;11516;51.612;7.510;2023-05-17T10:58:17;13.20;99.90
22698;DHT22;11516;51.612;7.510;2023-05-17T11:00:46;13.60;99.90
22698;DHT22;11516;51.612;7.510;2023-05-17T11:05:40;14.50;99.90
22698;DHT22;11516;51.612;7.510;2023-05-17T11:08:16;14.30;99.90
22698;DHT22;11516;51.612;7.510;2023-05-17T11:11:07;14.70;99.90
22698;DHT22;11516;51.612;7.510;2023-05-17T11:13:33;15.60;97.90
22698;DHT22;11516;51.612;7.510;2023-05-17T11:16:08;15.20;97.00
22698;DHT22;11516;51.612;7.510;2023-05-17T11:18:50;15.00;99.80
22698;DHT22;11516;51.612;7.510;2023-05-17T11:21:17;14.60;99.50
22698;DHT22;11516;51.612;7.510;2023-05-17T11:23:47;14.50;99.90
22698;DHT22;11516;51.612;7.510;2023-05-17T11:26:33;15.20;99.90
22698;DHT22;11516;51.612;7.510;2023-05-17T11:29:05;15.90;97.50
22698;DHT22;11516;51.612;7.510;2023-05-17T11:31:33;17.20;93.20
22698;DHT22;11516;51.612;7.510;2023-05-17T11:33:59;17.60;91.50
22698;DHT22;11516;51.612;7.510;2023-05-17T11:36:25;18.40;90.90
22698;DHT22;11516;51.612;7.510;2023-05-17T11:39:12;18.80;86.50
22698;DHT22;11516;51.612;7.510;2023-05-17T11:41:38;18.80;85.20
22698;DHT22;11516;51.612;7.510;2023-05-17T11:44:07;18.20;87.00
22698;DHT22;11516;51.612;7.510;2023-05-17T11:46:36;17.30;88.30
22698;DHT22;11516;51.612;7.510;2023-05-17T11:49:08;16.60;89.00
22698;DHT22;11516;51.612;7.510;2023-05-17T11:51:34;16.20;91.60
22698;DHT22;11516;51.612;7.510;2023-05-17T11:54:01;16.30;90.20
22698;DHT22;11516;51.612;7.510;2023-05-17T11:56:33;16.90;89.40
22698;DHT22;11516;51.612;7.510;2023-05-17T11:58:59;17.10;87.40
22698;DHT22;11516;51.612;7.510;2023-05-17T12:01:25;16.90;88.30
22698;DHT22;11516;51.612;7.510;2023-05-17T12:03:57;16.70;89.60
22698;DHT22;11516;51.612;7.510;2023-05-17T12:06:25;16.00;90.00
22698;DHT22;11516;51.612;7.510;2023-05-17T12:08:53;15.90;90.00
22698;DHT22;11516;51.612;7.510;2023-05-17T12:11:19;16.30;89.80
22698;DHT22;11516;51.612;7.510;2023-05-17T12:13:46;17.30;88.70
22698;DHT22;11516;51.612;7.510;2023-05-17T12:16:14;17.80;85.60
22698;DHT22;11516;51.612;7.510;2023-05-17T12:18:50;17.90;83.00
22698;DHT22;11516;51.612;7.510;2023-05-17T12:21:17;17.70;81.80
22698;DHT22;11516;51.612;7.510;2023-05-17T12:23:45;16.60;83.90
22698;DHT22;11516;51.612;7.510;2023-05-17T12:28:39;17.60;84.70
22698;DHT22;11516;51.612;7.510;2023-05-17T12:31:11;17.70;83.40
22698;DHT22;11516;51.612;7.510;2023-05-17T12:33:41;18.20;85.00
22698;DHT22;11516;51.612;7.510;2023-05-17T12:36:09;18.20;81.50
22698;DHT22;11516;51.612;7.510;2023-05-17T12:38:36;18.40;79.40
22698;DHT22;11516;51.612;7.510;2023-05-17T12:41:07;17.70;78.90
22698;DHT22;11516;51.612;7.510;2023-05-17T12:43:33;17.50;80.10
22698;DHT22;11516;51.612;7.510;2023-05-17T12:46:20;17.20;81.10
22698;DHT22;11516;51.612;7.510;2023-05-17T12:48:49;17.70;83.30
22698;DHT22;11516;51.612;7.510;2023-05-17T12:51:19;18.60;82.90
22698;DHT22;11516;51.612;7.510;2023-05-17T12:53:50;18.70;78.60
22698;DHT22;11516;51.612;7.510;2023-05-17T12:56:25;19.10;78.00
22698;DHT22;11516;51.612;7.510;2023-05-17T13:01:36;18.30;78.20
22698;DHT22;11516;51.612;7.510;2023-05-17T13:04:04;17.60;78.90
22698;DHT22;11516;51.612;7.510;2023-05-17T13:06:43;17.00;80.70
22698;DHT22;11516;51.612;7.510;2023-05-17T13:12:59;16.30;84.30
22698;DHT22;11516;51.612;7.510;2023-05-17T13:15:29;17.10;80.20
22698;DHT22;11516;51.612;7.510;2023-05-17T13:17:55;18.60;78.40
22698;DHT22;11516;51.612;7.510;2023-05-17T13:20:21;19.70;79.60
22698;DHT22;11516;51.612;7.510;2023-05-17T13:22:47;20.00;72.60
22698;DHT22;11516;51.612;7.510;2023-05-17T13:25:13;19.60;71.50
22698;DHT22;11516;51.612;7.510;2023-05-17T13:27:38;18.70;74.10
22698;DHT22;11516;51.612;7.510;2023-05-17T13:30:10;18.60;75.40
22698;DHT22;11516;51.612;7.510;2023-05-17T13:32:35;18.00;74.80
22698;DHT22;11516;51.612;7.510;2023-05-17T13:35:01;17.80;77.50
22698;DHT22;11516;51.612;7.510;2023-05-17T13:37:26;18.30;75.10
22698;DHT22;11516;51.612;7.510;2023-05-17T13:39:52;18.90;73.80
22698;DHT22;11516;51.612;7.510;2023-05-17T13:42:20;19.50;72.20
22698;DHT22;11516;51.612;7.510;2023-05-17T13:44:46;19.70;74.50
22698;DHT22;11516;51.612;7.510;2023-05-17T13:47:12;20.40;70.20
22698;DHT22;11516;51.612;7.510;2023-05-17T13:49:38;19.50;72.10
22698;DHT22;11516;51.612;7.510;2023-05-17T13:52:03;18.40;73.70
22698;DHT22;11516;51.612;7.510;2023-05-17T13:54:33;18.20;76.10
22698;DHT22;11516;51.612;7.510;2023-05-17T13:56:59;18.60;77.00
22698;DHT22;11516;51.612;7.510;2023-05-17T13:59:24;19.50;74.10
22698;DHT22;11516;51.612;7.510;2023-05-17T14:01:50;19.50;73.30
22698;DHT22;11516;51.612;7.510;2023-05-17T14:04:16;19.40;73.10
22698;DHT22;11516;51.612;7.510;2023-05-17T14:06:41;19.40;73.00
22698;DHT22;11516;51.612;7.510;2023-05-17T14:09:07;18.40;72.80
22698;DHT22;11516;51.612;7.510;2023-05-17T14:11:33;17.80;74.10
22698;DHT22;11516;51.612;7.510;2023-05-17T14:13:58;17.40;77.80
22698;DHT22;11516;51.612;7.510;2023-05-17T14:16:25;17.90;75.20
22698;DHT22;11516;51.612;7.510;2023-05-17T14:18:50;18.80;73.90
22698;DHT22;11516;51.612;7.510;2023-05-17T14:21:16;18.60;74.10
22698;DHT22;11516;51.612;7.510;2023-05-17T14:23:42;17.90;74.40
22698;DHT22;11516;51.612;7.510;2023-05-17T14:26:07;18.70;73.50
22698;DHT22;11516;51.612;7.510;2023-05-17T14:28:34;18.80;73.10
22698;DHT22;11516;51.612;7.510;2023-05-17T14:31:02;19.40;70.70
22698;DHT22;11516;51.612;7.510;2023-05-17T14:33:28;20.20;69.60
22698;DHT22;11516;51.612;7.510;2023-05-17T14:35:53;20.90;69.30
22698;DHT22;11516;51.612;7.510;2023-05-17T14:38:19;21.00;66.30
22698;DHT22;11516;51.612;7.510;2023-05-17T14:40:46;20.90;68.60
22698;DHT22;11516;51.612;7.510;2023-05-17T14:43:12;20.20;69.80
22698;DHT22;11516;51.612;7.510;2023-05-17T14:45:37;20.00;70.90
22698;DHT22;11516;51.612;7.510;2023-05-17T14:48:03;19.90;70.00
22698;DHT22;11516;51.612;7.510;2023-05-17T14:50:28;18.70;71.20
22698;DHT22;11516;51.612;7.510;2023-05-17T14:52:57;17.70;73.90
22698;DHT22;11516;51.612;7.510;2023-05-17T14:55:22;17.50;73.30
22698;DHT22;11516;51.612;7.510;2023-05-17T14:57:51;18.00;73.90
22698;DHT22;11516;51.612;7.510;2023-05-17T15:00:18;18.80;72.10
22698;DHT22;11516;51.612;7.510;2023-05-17T15:02:44;18.80;71.80
22698;DHT22;11516;51.612;7.510;2023-05-17T15:05:10;17.70;73.60
22698;DHT22;11516;51.612;7.510;2023-05-17T15:07:36;16.90;75.80
22698;DHT22;11516;51.612;7.510;2023-05-17T15:10:04;16.70;77.80
22698;DHT22;11516;51.612;7.510;2023-05-17T15:12:30;17.20;76.90
22698;DHT22;11516;51.612;7.510;2023-05-17T15:14:56;17.60;75.70
22698;DHT22;11516;51.612;7.510;2023-05-17T15:17:22;17.70;75.70
22698;DHT22;11516;51.612;7.510;2023-05-17T15:19:48;17.80;76.40
22698;DHT22;11516;51.612;7.510;2023-05-17T15:22:14;18.20;75.90
22698;DHT22;11516;51.612;7.510;2023-05-17T15:24:40;18.90;74.10
22698;DHT22;11516;51.612;7.510;2023-05-17T15:27:05;18.70;72.20
22698;DHT22;11516;51.612;7.510;2023-05-17T15:29:32;18.60;73.40
22698;DHT22;11516;51.612;7.510;2023-05-17T15:31:58;18.20;72.90
22698;DHT22;11516;51.612;7.510;2023-05-17T15:34:24;17.60;73.90
22698;DHT22;11516;51.612;7.510;2023-05-17T15:36:53;17.20;76.50
22698;DHT22;11516;51.612;7.510;2023-05-17T15:39:18;16.60;76.90
22698;DHT22;11516;51.612;7.510;2023-05-17T15:41:44;16.50;76.90
22698;DHT22;11516;51.612;7.510;2023-05-17T15:44:10;16.10;76.60
22698;DHT22;11516;51.612;7.510;2023-05-17T15:46:35;15.90;77.40
22698;DHT22;11516;51.612;7.510;2023-05-17T15:49:01;15.80;77.30
22698;DHT22;11516;51.612;7.510;2023-05-17T15:51:27;15.70;78.20
22698;DHT22;11516;51.612;7.510;2023-05-17T15:53:52;15.70;79.90
22698;DHT22;11516;51.612;7.510;2023-05-17T15:56:18;15.60;77.40
22698;DHT22;11516;51.612;7.510;2023-05-17T15:58:46;15.60;77.90
22698;DHT22;11516;51.612;7.510;2023-05-17T16:01:11;15.90;77.10
22698;DHT22;11516;51.612;7.510;2023-05-17T16:03:37;15.70;77.80
22698;DHT22;11516;51.612;7.510;2023-05-17T16:06:03;15.50;79.70
22698;DHT22;11516;51.612;7.510;2023-05-17T16:08:29;15.30;79.90
22698;DHT22;11516;51.612;7.510;2023-05-17T16:10:54;15.30;80.50
22698;DHT22;11516;51.612;7.510;2023-05-17T16:13:20;15.30;81.10
22698;DHT22;11516;51.612;7.510;2023-05-17T16:15:45;15.30;79.60
22698;DHT22;11516;51.612;7.510;2023-05-17T16:18:11;15.40;80.10
22698;DHT22;11516;51.612;7.510;2023-05-17T16:20:42;15.60;79.10
22698;DHT22;11516;51.612;7.510;2023-05-17T16:23:08;15.70;78.60
22698;DHT22;11516;51.612;7.510;2023-05-17T16:25:33;15.70;79.80
22698;DHT22;11516;51.612;7.510;2023-05-17T16:28:00;15.40;80.40
22698;DHT22;11516;51.612;7.510;2023-05-17T16:30:26;15.50;79.60
22698;DHT22;11516;51.612;7.510;2023-05-17T16:32:52;15.50;79.60
22698;DHT22;11516;51.612;7.510;2023-05-17T16:35:17;15.60;78.40
22698;DHT22;11516;51.612;7.510;2023-05-17T16:37:46;15.50;80.50
22698;DHT22;11516;51.612;7.510;2023-05-17T16:40:12;15.80;80.20
22698;DHT22;11516;51.612;7.510;2023-05-17T16:42:38;15.70;80.80
22698;DHT22;11516;51.612;7.510;2023-05-17T16:45:04;15.30;80.80
22698;DHT22;11516;51.612;7.510;2023-05-17T16:47:29;15.00;81.70
22698;DHT22;11516;51.612;7.510;2023-05-17T16:49:55;15.00;80.60
22698;DHT22;11516;51.612;7.510;2023-05-17T16:52:21;15.00;80.40
22698;DHT22;11516;51.612;7.510;2023-05-17T16:54:47;14.80;81.20
22698;DHT22;11516;51.612;7.510;2023-05-17T16:57:14;14.80;81.70
22698;DHT22;11516;51.612;7.510;2023-05-17T16:59:39;14.90;82.60
22698;DHT22;11516;51.612;7.510;2023-05-17T17:02:05;14.80;81.80
22698;DHT22;11516;51.612;7.510;2023-05-17T17:04:30;14.90;81.20
22698;DHT22;11516;51.612;7.510;2023-05-17T17:06:57;14.80;81.50
22698;DHT22;11516;51.612;7.510;2023-05-17T17:09:22;14.80;81.30
22698;DHT22;11516;51.612;7.510;2023-05-17T17:11:48;14.90;81.60
22698;DHT22;11516;51.612;7.510;2023-05-17T17:14:13;14.90;81.90
22698;DHT22;11516;51.612;7.510;2023-05-17T17:16:39;14.90;81.90
22698;DHT22;11516;51.612;7.510;2023-05-17T17:19:06;14.90;81.90
22698;DHT22;11516;51.612;7.510;2023-05-17T17:21:31;14.70;81.90
22698;DHT22;11516;51.612;7.510;2023-05-17T17:24:01;14.70;81.60
22698;DHT22;11516;51.612;7.510;2023-05-17T17:26:27;14.70;82.00
22698;DHT22;11516;51.612;7.510;2023-05-17T17:28:53;14.50;82.50
22698;DHT22;11516;51.612;7.510;2023-05-17T17:31:18;14.50;82.70
22698;DHT22;11516;51.612;7.510;2023-05-17T17:33:44;14.40;81.70
22698;DHT22;11516;51.612;7.510;2023-05-17T17:36:09;14.50;83.00
22698;DHT22;11516;51.612;7.510;2023-05-17T17:38:36;14.40;81.20
22698;DHT22;11516;51.612;7.510;2023-05-17T17:41:01;14.40;83.00
22698;DHT22;11516;51.612;7.510;2023-05-17T17:43:27;14.40;83.40
22698;DHT22;11516;51.612;7.510;2023-05-17T17:45:52;14.50;83.50
22698;DHT22;11516;51.612;7.510;2023-05-17T17:48:18;14.40;81.30
22698;DHT22;11516;51.612;7.510;2023-05-17T17:50:43;14.40;82.60
22698;DHT22;11516;51.612;7.510;2023-05-17T17:53:09;14.40;82.40
22698;DHT22;11516;51.612;7.510;2023-05-17T17:55:34;14.40;82.00
22698;DHT22;11516;51.612;7.510;2023-05-17T17:58:00;14.30;82.70
22698;DHT22;11516;51.612;7.510;2023-05-17T18:00:25;14.30;82.60
22698;DHT22;11516;51.612;7.510;2023-05-17T18:02:51;14.20;83.00
22698;DHT22;11516;51.612;7.510;2023-05-17T18:05:16;14.10;82.70
22698;DHT22;11516;51.612;7.510;2023-05-17T18:07:42;14.10;83.40
22698;DHT22;11516;51.612;7.510;2023-05-17T18:10:07;14.00;83.10